sensor_id;sensor_type;location;lat;lon;timestamp;temperature;humidity
28247;DHT22;66191;53.178;22.058;2023-05-10T00:01:28;9.90;57.10
28247;DHT22;66191;53.178;22.058;2023-05-10T00:04:23;9.90;57.50
28247;DHT22;66191;53.178;22.058;2023-05-10T00:07:30;9.90;57.50
28247;DHT22;66191;53.178;22.058;2023-05-10T00:10:11;9.80;57.60
28247;DHT22;66191;53.178;22.058;2023-05-10T00:16:05;9.80;58.30
28247;DHT22;66191;53.178;22.058;2023-05-10T00:18:55;9.80;58.20
28247;DHT22;66191;53.178;22.058;2023-05-10T00:21:43;9.80;58.50
28247;DHT22;66191;53.178;22.058;2023-05-10T00:24:27;9.70;58.30
28247;DHT22;66191;53.178;22.058;2023-05-10T00:30:16;9.70;58.80
28247;DHT22;66191;53.178;22.058;2023-05-10T00:33:33;9.70;58.90
28247;DHT22;66191;53.178;22.058;2023-05-10T00:36:22;9.60;58.70
28247;DHT22;66191;53.178;22.058;2023-05-10T00:39:29;9.60;58.80
28247;DHT22;66191;53.178;22.058;2023-05-10T00:45:21;9.60;59.00
28247;DHT22;66191;53.178;22.058;2023-05-10T00:48:24;9.50;59.10
28247;DHT22;66191;53.178;22.058;2023-05-10T00:51:36;9.50;59.30
28247;DHT22;66191;53.178;22.058;2023-05-10T00:54:31;9.40;59.20
28247;DHT22;66191;53.178;22.058;2023-05-10T00:57:18;9.40;59.30
28247;DHT22;66191;53.178;22.058;2023-05-10T01:04:02;9.40;59.40
28247;DHT22;66191;53.178;22.058;2023-05-10T01:06:47;9.40;59.50
28247;DHT22;66191;53.178;22.058;2023-05-10T01:09:46;9.30;59.60
28247;DHT22;66191;53.178;22.058;2023-05-10T01:12:49;9.30;59.60
28247;DHT22;66191;53.178;22.058;2023-05-10T01:15:52;9.20;59.90
28247;DHT22;66191;53.178;22.058;2023-05-10T01:18:35;9.20;60.20
28247;DHT22;66191;53.178;22.058;2023-05-10T01:21:28;9.30;60.10
28247;DHT22;66191;53.178;22.058;2023-05-10T01:30:46;9.20;60.60
28247;DHT22;66191;53.178;22.058;2023-05-10T01:37:19;9.10;60.60
28247;DHT22;66191;53.178;22.058;2023-05-10T01:40:42;9.00;60.60
28247;DHT22;66191;53.178;22.058;2023-05-10T01:43:37;9.00;60.80
28247;DHT22;66191;53.178;22.058;2023-05-10T01:46:48;8.90;61.20
28247;DHT22;66191;53.178;22.058;2023-05-10T01:49:45;8.90;61.40
28247;DHT22;66191;53.178;22.058;2023-05-10T01:52:44;8.90;61.40
28247;DHT22;66191;53.178;22.058;2023-05-10T01:55:33;8.80;61.70
28247;DHT22;66191;53.178;22.058;2023-05-10T01:58:22;8.80;61.70
28247;DHT22;66191;53.178;22.058;2023-05-10T02:01:05;8.80;61.70
28247;DHT22;66191;53.178;22.058;2023-05-10T02:04:09;8.80;62.00
28247;DHT22;66191;53.178;22.058;2023-05-10T02:07:01;8.80;62.00
28247;DHT22;66191;53.178;22.058;2023-05-10T02:09:35;8.70;62.10
28247;DHT22;66191;53.178;22.058;2023-05-10T02:12:10;8.70;62.30
28247;DHT22;66191;53.178;22.058;2023-05-10T02:15:01;8.70;62.30
28247;DHT22;66191;53.178;22.058;2023-05-10T02:17:42;8.70;62.60
28247;DHT22;66191;53.178;22.058;2023-05-10T02:20:15;8.60;62.50
28247;DHT22;66191;53.178;22.058;2023-05-10T02:22:54;8.60;62.70
28247;DHT22;66191;53.178;22.058;2023-05-10T02:25:36;8.70;62.90
28247;DHT22;66191;53.178;22.058;2023-05-10T02:28:17;8.50;63.00
28247;DHT22;66191;53.178;22.058;2023-05-10T02:30:56;8.60;63.10
28247;DHT22;66191;53.178;22.058;2023-05-10T02:33:33;8.50;63.00
28247;DHT22;66191;53.178;22.058;2023-05-10T02:36:30;8.50;63.10
28247;DHT22;66191;53.178;22.058;2023-05-10T02:39:15;8.50;63.30
28247;DHT22;66191;53.178;22.058;2023-05-10T02:41:59;8.50;63.50
28247;DHT22;66191;53.178;22.058;2023-05-10T02:44:36;8.40;63.60
28247;DHT22;66191;53.178;22.058;2023-05-10T02:47:17;8.40;63.70
28247;DHT22;66191;53.178;22.058;2023-05-10T02:53:52;8.40;63.90
28247;DHT22;66191;53.178;22.058;2023-05-10T02:56:53;8.40;64.10
28247;DHT22;66191;53.178;22.058;2023-05-10T02:59:37;8.40;64.30
28247;DHT22;66191;53.178;22.058;2023-05-10T03:03:00;8.40;64.20
28247;DHT22;66191;53.178;22.058;2023-05-10T03:09:15;8.60;64.00
28247;DHT22;66191;53.178;22.058;2023-05-10T03:12:15;8.70;63.70
28247;DHT22;66191;53.178;22.058;2023-05-10T03:14:53;8.70;63.50
28247;DHT22;66191;53.178;22.058;2023-05-10T03:17:30;8.70;63.30
28247;DHT22;66191;53.178;22.058;2023-05-10T03:20:04;8.70;63.40
28247;DHT22;66191;53.178;22.058;2023-05-10T03:22:40;8.70;63.50
28247;DHT22;66191;53.178;22.058;2023-05-10T03:25:15;8.80;63.40
28247;DHT22;66191;53.178;22.058;2023-05-10T03:30:45;8.90;63.20
28247;DHT22;66191;53.178;22.058;2023-05-10T03:33:18;9.00;63.00
28247;DHT22;66191;53.178;22.058;2023-05-10T03:36:10;9.10;62.80
28247;DHT22;66191;53.178;22.058;2023-05-10T03:38:42;9.20;62.50
28247;DHT22;66191;53.178;22.058;2023-05-10T03:41:19;9.30;62.20
28247;DHT22;66191;53.178;22.058;2023-05-10T03:44:01;9.40;62.00
28247;DHT22;66191;53.178;22.058;2023-05-10T03:46:38;9.50;61.80
28247;DHT22;66191;53.178;22.058;2023-05-10T03:49:12;9.60;61.60
28247;DHT22;66191;53.178;22.058;2023-05-10T03:51:43;9.70;61.00
28247;DHT22;66191;53.178;22.058;2023-05-10T03:54:16;9.80;61.30
28247;DHT22;66191;53.178;22.058;2023-05-10T03:56:47;10.00;60.80
28247;DHT22;66191;53.178;22.058;2023-05-10T03:59:37;10.10;60.40
28247;DHT22;66191;53.178;22.058;2023-05-10T04:02:10;10.20;59.90
28247;DHT22;66191;53.178;22.058;2023-05-10T04:04:41;10.20;59.90
28247;DHT22;66191;53.178;22.058;2023-05-10T04:07:12;10.30;60.00
28247;DHT22;66191;53.178;22.058;2023-05-10T04:09:43;10.40;59.80
28247;DHT22;66191;53.178;22.058;2023-05-10T04:12:14;10.50;59.90
28247;DHT22;66191;53.178;22.058;2023-05-10T04:14:45;10.70;59.20
28247;DHT22;66191;53.178;22.058;2023-05-10T04:17:18;10.70;59.60
28247;DHT22;66191;53.178;22.058;2023-05-10T04:19:49;10.90;59.10
28247;DHT22;66191;53.178;22.058;2023-05-10T04:22:22;10.90;58.90
28247;DHT22;66191;53.178;22.058;2023-05-10T04:24:53;11.10;58.20
28247;DHT22;66191;53.178;22.058;2023-05-10T04:27:24;11.10;58.10
28247;DHT22;66191;53.178;22.058;2023-05-10T04:29:55;11.30;58.30
28247;DHT22;66191;53.178;22.058;2023-05-10T04:32:32;11.30;57.90
28247;DHT22;66191;53.178;22.058;2023-05-10T04:35:07;11.40;57.60
28247;DHT22;66191;53.178;22.058;2023-05-10T04:37:38;11.50;57.80
28247;DHT22;66191;53.178;22.058;2023-05-10T04:40:12;11.60;57.40
28247;DHT22;66191;53.178;22.058;2023-05-10T04:42:43;11.70;57.20
28247;DHT22;66191;53.178;22.058;2023-05-10T04:45:15;11.70;57.40
28247;DHT22;66191;53.178;22.058;2023-05-10T04:47:58;11.80;57.20
28247;DHT22;66191;53.178;22.058;2023-05-10T04:50:48;11.90;56.90
28247;DHT22;66191;53.178;22.058;2023-05-10T04:53:21;12.00;56.70
28247;DHT22;66191;53.178;22.058;2023-05-10T04:56:09;12.00;56.90
28247;DHT22;66191;53.178;22.058;2023-05-10T04:58:46;12.10;56.80
28247;DHT22;66191;53.178;22.058;2023-05-10T05:01:22;12.10;56.80
28247;DHT22;66191;53.178;22.058;2023-05-10T05:04:13;12.30;56.30
28247;DHT22;66191;53.178;22.058;2023-05-10T05:07:05;12.30;56.20
28247;DHT22;66191;53.178;22.058;2023-05-10T05:09:40;12.30;56.30
28247;DHT22;66191;53.178;22.058;2023-05-10T05:12:11;12.30;56.10
28247;DHT22;66191;53.178;22.058;2023-05-10T05:14:42;12.40;56.10
28247;DHT22;66191;53.178;22.058;2023-05-10T05:17:13;12.40;55.90
28247;DHT22;66191;53.178;22.058;2023-05-10T05:19:46;12.50;55.60
28247;DHT22;66191;53.178;22.058;2023-05-10T05:22:17;12.50;55.70
28247;DHT22;66191;53.178;22.058;2023-05-10T05:24:54;12.60;55.20
28247;DHT22;66191;53.178;22.058;2023-05-10T05:27:26;12.70;55.10
28247;DHT22;66191;53.178;22.058;2023-05-10T05:29:56;12.70;55.00
28247;DHT22;66191;53.178;22.058;2023-05-10T05:32:27;12.80;55.40
28247;DHT22;66191;53.178;22.058;2023-05-10T05:35:02;12.90;54.80
28247;DHT22;66191;53.178;22.058;2023-05-10T05:37:36;12.90;53.60
28247;DHT22;66191;53.178;22.058;2023-05-10T05:40:12;12.90;54.20
28247;DHT22;66191;53.178;22.058;2023-05-10T05:42:45;13.00;54.10
28247;DHT22;66191;53.178;22.058;2023-05-10T05:45:16;13.10;54.10
28247;DHT22;66191;53.178;22.058;2023-05-10T05:47:47;13.20;53.70
28247;DHT22;66191;53.178;22.058;2023-05-10T05:50:25;13.20;54.00
28247;DHT22;66191;53.178;22.058;2023-05-10T05:52:56;13.30;54.30
28247;DHT22;66191;53.178;22.058;2023-05-10T05:55:27;13.40;53.80
28247;DHT22;66191;53.178;22.058;2023-05-10T05:57:59;13.50;53.80
28247;DHT22;66191;53.178;22.058;2023-05-10T06:00:30;13.60;53.20
28247;DHT22;66191;53.178;22.058;2023-05-10T06:03:07;13.60;53.30
28247;DHT22;66191;53.178;22.058;2023-05-10T06:05:43;13.70;53.70
28247;DHT22;66191;53.178;22.058;2023-05-10T06:08:14;13.80;53.40
28247;DHT22;66191;53.178;22.058;2023-05-10T06:10:48;13.80;53.60
28247;DHT22;66191;53.178;22.058;2023-05-10T06:13:20;13.90;53.30
28247;DHT22;66191;53.178;22.058;2023-05-10T06:15:52;14.00;53.10
28247;DHT22;66191;53.178;22.058;2023-05-10T06:18:23;14.10;53.30
28247;DHT22;66191;53.178;22.058;2023-05-10T06:20:56;14.10;52.90
28247;DHT22;66191;53.178;22.058;2023-05-10T06:23:29;14.20;52.70
28247;DHT22;66191;53.178;22.058;2023-05-10T06:25:59;14.30;52.60
28247;DHT22;66191;53.178;22.058;2023-05-10T06:28:31;14.30;52.50
28247;DHT22;66191;53.178;22.058;2023-05-10T06:31:02;14.30;51.80
28247;DHT22;66191;53.178;22.058;2023-05-10T06:33:33;14.30;52.70
28247;DHT22;66191;53.178;22.058;2023-05-10T06:36:07;14.40;52.90
28247;DHT22;66191;53.178;22.058;2023-05-10T06:38:38;14.40;51.80
28247;DHT22;66191;53.178;22.058;2023-05-10T06:41:09;14.30;51.50
28247;DHT22;66191;53.178;22.058;2023-05-10T06:43:41;14.40;51.60
28247;DHT22;66191;53.178;22.058;2023-05-10T06:46:13;14.40;51.30
28247;DHT22;66191;53.178;22.058;2023-05-10T06:48:45;14.40;51.30
28247;DHT22;66191;53.178;22.058;2023-05-10T06:51:18;14.40;51.30
28247;DHT22;66191;53.178;22.058;2023-05-10T06:53:50;14.40;51.90
28247;DHT22;66191;53.178;22.058;2023-05-10T06:56:20;14.50;51.90
28247;DHT22;66191;53.178;22.058;2023-05-10T06:58:52;14.60;51.60
28247;DHT22;66191;53.178;22.058;2023-05-10T07:01:23;14.60;51.10
28247;DHT22;66191;53.178;22.058;2023-05-10T07:03:55;14.70;50.80
28247;DHT22;66191;53.178;22.058;2023-05-10T07:06:33;14.70;49.70
28247;DHT22;66191;53.178;22.058;2023-05-10T07:09:04;14.70;49.80
28247;DHT22;66191;53.178;22.058;2023-05-10T07:11:37;14.80;49.50
28247;DHT22;66191;53.178;22.058;2023-05-10T07:14:09;14.80;49.40
28247;DHT22;66191;53.178;22.058;2023-05-10T07:16:41;14.90;49.00
28247;DHT22;66191;53.178;22.058;2023-05-10T07:19:12;15.00;47.20
28247;DHT22;66191;53.178;22.058;2023-05-10T07:21:46;15.00;48.10
28247;DHT22;66191;53.178;22.058;2023-05-10T07:24:18;15.00;48.70
28247;DHT22;66191;53.178;22.058;2023-05-10T07:26:48;15.10;47.30
28247;DHT22;66191;53.178;22.058;2023-05-10T07:29:19;15.10;46.20
28247;DHT22;66191;53.178;22.058;2023-05-10T07:31:50;15.20;45.80
28247;DHT22;66191;53.178;22.058;2023-05-10T07:34:26;15.20;45.60
28247;DHT22;66191;53.178;22.058;2023-05-10T07:37:00;15.30;45.00
28247;DHT22;66191;53.178;22.058;2023-05-10T07:39:31;15.30;44.70
28247;DHT22;66191;53.178;22.058;2023-05-10T07:42:02;15.30;44.40
28247;DHT22;66191;53.178;22.058;2023-05-10T07:44:33;15.40;43.80
28247;DHT22;66191;53.178;22.058;2023-05-10T07:47:04;15.40;44.20
28247;DHT22;66191;53.178;22.058;2023-05-10T07:49:35;15.50;44.30
28247;DHT22;66191;53.178;22.058;2023-05-10T07:52:08;15.50;42.60
28247;DHT22;66191;53.178;22.058;2023-05-10T07:54:39;15.50;41.10
28247;DHT22;66191;53.178;22.058;2023-05-10T07:57:10;15.50;42.30
28247;DHT22;66191;53.178;22.058;2023-05-10T07:59:45;15.50;41.90
28247;DHT22;66191;53.178;22.058;2023-05-10T08:02:15;15.50;42.00
28247;DHT22;66191;53.178;22.058;2023-05-10T08:04:47;15.50;42.20
28247;DHT22;66191;53.178;22.058;2023-05-10T08:07:20;15.60;42.50
28247;DHT22;66191;53.178;22.058;2023-05-10T08:09:54;15.60;42.70
28247;DHT22;66191;53.178;22.058;2023-05-10T08:12:24;15.60;42.20
28247;DHT22;66191;53.178;22.058;2023-05-10T08:14:55;15.70;42.60
28247;DHT22;66191;53.178;22.058;2023-05-10T08:17:26;15.70;41.00
28247;DHT22;66191;53.178;22.058;2023-05-10T08:19:57;15.70;41.40
28247;DHT22;66191;53.178;22.058;2023-05-10T08:22:30;15.80;41.30
28247;DHT22;66191;53.178;22.058;2023-05-10T08:25:01;15.70;41.70
28247;DHT22;66191;53.178;22.058;2023-05-10T08:27:33;15.80;40.70
28247;DHT22;66191;53.178;22.058;2023-05-10T08:30:05;15.80;41.20
28247;DHT22;66191;53.178;22.058;2023-05-10T08:32:35;15.80;41.40
28247;DHT22;66191;53.178;22.058;2023-05-10T08:35:08;15.80;41.50
28247;DHT22;66191;53.178;22.058;2023-05-10T08:37:41;15.80;42.30
28247;DHT22;66191;53.178;22.058;2023-05-10T08:40:12;15.90;42.40
28247;DHT22;66191;53.178;22.058;2023-05-10T08:42:43;15.90;42.80
28247;DHT22;66191;53.178;22.058;2023-05-10T08:45:15;16.00;41.90
28247;DHT22;66191;53.178;22.058;2023-05-10T08:47:49;16.00;41.70
28247;DHT22;66191;53.178;22.058;2023-05-10T08:50:20;16.10;42.10
28247;DHT22;66191;53.178;22.058;2023-05-10T08:52:55;16.10;41.70
28247;DHT22;66191;53.178;22.058;2023-05-10T08:55:26;16.10;42.10
28247;DHT22;66191;53.178;22.058;2023-05-10T08:57:57;16.20;41.80
28247;DHT22;66191;53.178;22.058;2023-05-10T09:00:28;16.20;40.60
28247;DHT22;66191;53.178;22.058;2023-05-10T09:02:59;16.20;40.80
28247;DHT22;66191;53.178;22.058;2023-05-10T09:05:30;16.20;41.00
28247;DHT22;66191;53.178;22.058;2023-05-10T09:08:04;16.20;40.80
28247;DHT22;66191;53.178;22.058;2023-05-10T09:10:37;16.30;40.80
28247;DHT22;66191;53.178;22.058;2023-05-10T09:13:13;16.30;41.10
28247;DHT22;66191;53.178;22.058;2023-05-10T09:15:44;16.40;41.00
28247;DHT22;66191;53.178;22.058;2023-05-10T09:18:17;16.40;40.80
28247;DHT22;66191;53.178;22.058;2023-05-10T09:20:48;16.40;40.40
28247;DHT22;66191;53.178;22.058;2023-05-10T09:23:21;16.40;40.20
28247;DHT22;66191;53.178;22.058;2023-05-10T09:26:02;16.50;40.60
28247;DHT22;66191;53.178;22.058;2023-05-10T09:28:33;16.50;40.20
28247;DHT22;66191;53.178;22.058;2023-05-10T09:31:04;16.50;40.20
28247;DHT22;66191;53.178;22.058;2023-05-10T09:33:43;16.50;40.10
28247;DHT22;66191;53.178;22.058;2023-05-10T09:36:15;16.50;40.30
28247;DHT22;66191;53.178;22.058;2023-05-10T09:38:48;16.60;40.50
28247;DHT22;66191;53.178;22.058;2023-05-10T09:41:20;16.60;40.80
28247;DHT22;66191;53.178;22.058;2023-05-10T09:43:55;16.60;40.60
28247;DHT22;66191;53.178;22.058;2023-05-10T09:46:26;16.60;41.20
28247;DHT22;66191;53.178;22.058;2023-05-10T09:48:57;16.70;40.80
28247;DHT22;66191;53.178;22.058;2023-05-10T09:51:28;16.70;40.80
28247;DHT22;66191;53.178;22.058;2023-05-10T09:54:12;16.80;41.10
28247;DHT22;66191;53.178;22.058;2023-05-10T09:56:43;16.80;41.10
28247;DHT22;66191;53.178;22.058;2023-05-10T09:59:14;16.80;41.20
28247;DHT22;66191;53.178;22.058;2023-05-10T10:01:49;16.90;41.30
28247;DHT22;66191;53.178;22.058;2023-05-10T10:04:20;16.90;41.00
28247;DHT22;66191;53.178;22.058;2023-05-10T10:07:00;17.00;40.80
28247;DHT22;66191;53.178;22.058;2023-05-10T10:09:34;17.00;39.90
28247;DHT22;66191;53.178;22.058;2023-05-10T10:12:05;17.00;40.90
28247;DHT22;66191;53.178;22.058;2023-05-10T10:14:36;17.00;40.10
28247;DHT22;66191;53.178;22.058;2023-05-10T10:17:07;17.00;39.90
28247;DHT22;66191;53.178;22.058;2023-05-10T10:19:37;16.90;39.40
28247;DHT22;66191;53.178;22.058;2023-05-10T10:22:08;16.90;39.70
28247;DHT22;66191;53.178;22.058;2023-05-10T10:24:44;16.90;40.10
28247;DHT22;66191;53.178;22.058;2023-05-10T10:27:19;17.00;39.60
28247;DHT22;66191;53.178;22.058;2023-05-10T10:29:55;17.00;39.80
28247;DHT22;66191;53.178;22.058;2023-05-10T10:32:29;17.00;40.10
28247;DHT22;66191;53.178;22.058;2023-05-10T10:35:00;17.00;39.00
28247;DHT22;66191;53.178;22.058;2023-05-10T10:37:43;17.10;40.10
28247;DHT22;66191;53.178;22.058;2023-05-10T10:40:28;17.10;39.80
28247;DHT22;66191;53.178;22.058;2023-05-10T10:45:48;17.00;39.20
28247;DHT22;66191;53.178;22.058;2023-05-10T10:48:38;17.00;39.00
28247;DHT22;66191;53.178;22.058;2023-05-10T10:51:09;17.10;39.40
28247;DHT22;66191;53.178;22.058;2023-05-10T10:53:43;17.10;38.70
28247;DHT22;66191;53.178;22.058;2023-05-10T10:56:17;17.20;39.20
28247;DHT22;66191;53.178;22.058;2023-05-10T10:58:52;17.20;39.80
28247;DHT22;66191;53.178;22.058;2023-05-10T11:01:23;17.30;39.60
28247;DHT22;66191;53.178;22.058;2023-05-10T11:06:41;17.40;39.20
28247;DHT22;66191;53.178;22.058;2023-05-10T11:09:12;17.40;39.40
28247;DHT22;66191;53.178;22.058;2023-05-10T11:11:51;17.50;39.30
28247;DHT22;66191;53.178;22.058;2023-05-10T11:14:24;17.50;39.50
28247;DHT22;66191;53.178;22.058;2023-05-10T11:16:58;17.50;38.90
28247;DHT22;66191;53.178;22.058;2023-05-10T11:19:32;17.50;39.20
28247;DHT22;66191;53.178;22.058;2023-05-10T11:22:12;17.50;38.90
28247;DHT22;66191;53.178;22.058;2023-05-10T11:24:56;17.50;38.90
28247;DHT22;66191;53.178;22.058;2023-05-10T11:27:31;17.60;39.10
28247;DHT22;66191;53.178;22.058;2023-05-10T11:30:04;17.50;38.80
28247;DHT22;66191;53.178;22.058;2023-05-10T11:32:36;17.60;39.30
28247;DHT22;66191;53.178;22.058;2023-05-10T11:35:08;17.60;39.20
28247;DHT22;66191;53.178;22.058;2023-05-10T11:37:38;17.60;39.40
28247;DHT22;66191;53.178;22.058;2023-05-10T11:40:11;17.50;38.60
28247;DHT22;66191;53.178;22.058;2023-05-10T11:42:45;17.60;39.30
28247;DHT22;66191;53.178;22.058;2023-05-10T11:45:16;17.60;39.60
28247;DHT22;66191;53.178;22.058;2023-05-10T11:47:49;17.60;39.70
28247;DHT22;66191;53.178;22.058;2023-05-10T11:50:21;17.70;39.30
28247;DHT22;66191;53.178;22.058;2023-05-10T11:52:53;17.70;39.10
28247;DHT22;66191;53.178;22.058;2023-05-10T11:55:26;17.70;39.00
28247;DHT22;66191;53.178;22.058;2023-05-10T11:58:02;17.80;39.80
28247;DHT22;66191;53.178;22.058;2023-05-10T12:00:41;17.80;39.40
28247;DHT22;66191;53.178;22.058;2023-05-10T12:03:18;17.80;39.90
28247;DHT22;66191;53.178;22.058;2023-05-10T12:05:49;17.80;39.20
28247;DHT22;66191;53.178;22.058;2023-05-10T12:08:26;17.80;39.30
28247;DHT22;66191;53.178;22.058;2023-05-10T12:11:05;17.80;38.80
28247;DHT22;66191;53.178;22.058;2023-05-10T12:13:40;17.70;38.90
28247;DHT22;66191;53.178;22.058;2023-05-10T12:16:14;17.80;39.50
28247;DHT22;66191;53.178;22.058;2023-05-10T12:18:48;17.70;39.20
28247;DHT22;66191;53.178;22.058;2023-05-10T12:21:21;17.80;39.60
28247;DHT22;66191;53.178;22.058;2023-05-10T12:23:51;17.80;39.50
28247;DHT22;66191;53.178;22.058;2023-05-10T12:26:23;17.70;39.10
28247;DHT22;66191;53.178;22.058;2023-05-10T12:29:11;17.70;39.70
28247;DHT22;66191;53.178;22.058;2023-05-10T12:31:49;17.70;40.50
28247;DHT22;66191;53.178;22.058;2023-05-10T12:34:23;17.70;38.90
28247;DHT22;66191;53.178;22.058;2023-05-10T12:36:58;17.70;39.20
28247;DHT22;66191;53.178;22.058;2023-05-10T12:39:38;17.60;39.40
28247;DHT22;66191;53.178;22.058;2023-05-10T12:42:09;17.60;39.90
28247;DHT22;66191;53.178;22.058;2023-05-10T12:44:42;17.70;39.60
28247;DHT22;66191;53.178;22.058;2023-05-10T12:47:13;17.70;39.60
28247;DHT22;66191;53.178;22.058;2023-05-10T12:49:47;17.80;39.40
28247;DHT22;66191;53.178;22.058;2023-05-10T12:52:19;17.80;39.70
28247;DHT22;66191;53.178;22.058;2023-05-10T12:54:49;17.80;39.40
28247;DHT22;66191;53.178;22.058;2023-05-10T12:57:23;17.90;39.90
28247;DHT22;66191;53.178;22.058;2023-05-10T12:59:59;17.90;39.60
28247;DHT22;66191;53.178;22.058;2023-05-10T13:02:31;17.90;38.90
28247;DHT22;66191;53.178;22.058;2023-05-10T13:05:02;17.90;39.40
28247;DHT22;66191;53.178;22.058;2023-05-10T13:07:36;17.90;39.60
28247;DHT22;66191;53.178;22.058;2023-05-10T13:10:06;17.90;39.20
28247;DHT22;66191;53.178;22.058;2023-05-10T13:12:37;17.90;38.90
28247;DHT22;66191;53.178;22.058;2023-05-10T13:15:11;17.90;38.50
28247;DHT22;66191;53.178;22.058;2023-05-10T13:17:43;17.90;39.30
28247;DHT22;66191;53.178;22.058;2023-05-10T13:20:15;17.90;38.80
28247;DHT22;66191;53.178;22.058;2023-05-10T13:22:46;18.00;38.50
28247;DHT22;66191;53.178;22.058;2023-05-10T13:25:18;17.90;38.30
28247;DHT22;66191;53.178;22.058;2023-05-10T13:27:49;17.90;39.30
28247;DHT22;66191;53.178;22.058;2023-05-10T13:30:22;17.90;39.30
28247;DHT22;66191;53.178;22.058;2023-05-10T13:32:54;17.90;39.40
28247;DHT22;66191;53.178;22.058;2023-05-10T13:35:24;18.00;39.70
28247;DHT22;66191;53.178;22.058;2023-05-10T13:37:55;18.00;39.20
28247;DHT22;66191;53.178;22.058;2023-05-10T13:40:26;18.00;39.00
28247;DHT22;66191;53.178;22.058;2023-05-10T13:42:57;18.00;38.60
28247;DHT22;66191;53.178;22.058;2023-05-10T13:45:30;18.00;38.30
28247;DHT22;66191;53.178;22.058;2023-05-10T13:48:01;17.90;38.70
28247;DHT22;66191;53.178;22.058;2023-05-10T13:50:32;18.00;39.20
28247;DHT22;66191;53.178;22.058;2023-05-10T13:53:03;18.00;39.20
28247;DHT22;66191;53.178;22.058;2023-05-10T13:55:34;18.00;39.60
28247;DHT22;66191;53.178;22.058;2023-05-10T13:58:05;18.00;39.00
28247;DHT22;66191;53.178;22.058;2023-05-10T14:00:38;18.10;38.80
28247;DHT22;66191;53.178;22.058;2023-05-10T14:03:10;18.00;38.20
28247;DHT22;66191;53.178;22.058;2023-05-10T14:05:44;18.00;38.50
28247;DHT22;66191;53.178;22.058;2023-05-10T14:08:15;18.10;38.30
28247;DHT22;66191;53.178;22.058;2023-05-10T14:10:46;18.00;37.80
28247;DHT22;66191;53.178;22.058;2023-05-10T14:13:20;18.00;38.60
28247;DHT22;66191;53.178;22.058;2023-05-10T14:15:56;18.00;38.50
28247;DHT22;66191;53.178;22.058;2023-05-10T14:18:28;17.90;38.80
28247;DHT22;66191;53.178;22.058;2023-05-10T14:21:01;17.90;38.80
28247;DHT22;66191;53.178;22.058;2023-05-10T14:23:32;17.90;38.90
28247;DHT22;66191;53.178;22.058;2023-05-10T14:26:03;17.80;39.20
28247;DHT22;66191;53.178;22.058;2023-05-10T14:28:34;17.90;39.30
28247;DHT22;66191;53.178;22.058;2023-05-10T14:31:07;17.80;39.70
28247;DHT22;66191;53.178;22.058;2023-05-10T14:33:41;17.90;39.30
28247;DHT22;66191;53.178;22.058;2023-05-10T14:36:13;17.80;39.10
28247;DHT22;66191;53.178;22.058;2023-05-10T14:38:43;17.80;39.60
28247;DHT22;66191;53.178;22.058;2023-05-10T14:41:15;17.80;39.60
28247;DHT22;66191;53.178;22.058;2023-05-10T14:43:46;17.80;39.60
28247;DHT22;66191;53.178;22.058;2023-05-10T14:46:20;17.90;39.40
28247;DHT22;66191;53.178;22.058;2023-05-10T14:48:51;17.90;39.10
28247;DHT22;66191;53.178;22.058;2023-05-10T14:51:22;17.90;39.10
28247;DHT22;66191;53.178;22.058;2023-05-10T14:53:52;17.90;39.70
28247;DHT22;66191;53.178;22.058;2023-05-10T14:56:23;17.90;39.60
28247;DHT22;66191;53.178;22.058;2023-05-10T14:58:55;17.90;39.00
28247;DHT22;66191;53.178;22.058;2023-05-10T15:01:30;17.90;39.40
28247;DHT22;66191;53.178;22.058;2023-05-10T15:04:03;17.90;39.60
28247;DHT22;66191;53.178;22.058;2023-05-10T15:06:34;17.80;39.40
28247;DHT22;66191;53.178;22.058;2023-05-10T15:09:05;17.80;39.20
28247;DHT22;66191;53.178;22.058;2023-05-10T15:11:36;17.80;39.80
28247;DHT22;66191;53.178;22.058;2023-05-10T15:14:07;17.80;39.60
28247;DHT22;66191;53.178;22.058;2023-05-10T15:16:40;17.80;39.70
28247;DHT22;66191;53.178;22.058;2023-05-10T15:19:11;17.80;39.70
28247;DHT22;66191;53.178;22.058;2023-05-10T15:21:42;17.80;39.50
28247;DHT22;66191;53.178;22.058;2023-05-10T15:24:13;17.80;39.10
28247;DHT22;66191;53.178;22.058;2023-05-10T15:26:44;17.80;39.30
28247;DHT22;66191;53.178;22.058;2023-05-10T15:29:17;17.70;39.60
28247;DHT22;66191;53.178;22.058;2023-05-10T15:31:51;17.70;39.60
28247;DHT22;66191;53.178;22.058;2023-05-10T15:34:23;17.70;39.50
28247;DHT22;66191;53.178;22.058;2023-05-10T15:36:55;17.70;39.10
28247;DHT22;66191;53.178;22.058;2023-05-10T15:39:28;17.70;39.30
28247;DHT22;66191;53.178;22.058;2023-05-10T15:41:59;17.70;39.60
28247;DHT22;66191;53.178;22.058;2023-05-10T15:44:31;17.70;39.70
28247;DHT22;66191;53.178;22.058;2023-05-10T15:47:05;17.70;39.90
28247;DHT22;66191;53.178;22.058;2023-05-10T15:49:36;17.70;39.70
28247;DHT22;66191;53.178;22.058;2023-05-10T15:52:12;17.70;40.00
28247;DHT22;66191;53.178;22.058;2023-05-10T15:54:43;17.70;39.90
28247;DHT22;66191;53.178;22.058;2023-05-10T15:57:14;17.60;39.90
28247;DHT22;66191;53.178;22.058;2023-05-10T15:59:46;17.60;39.80
28247;DHT22;66191;53.178;22.058;2023-05-10T16:02:20;17.60;39.90
28247;DHT22;66191;53.178;22.058;2023-05-10T16:04:51;17.70;39.90
28247;DHT22;66191;53.178;22.058;2023-05-10T16:07:23;17.60;40.10
28247;DHT22;66191;53.178;22.058;2023-05-10T16:09:57;17.60;40.10
28247;DHT22;66191;53.178;22.058;2023-05-10T16:12:31;17.60;39.80
28247;DHT22;66191;53.178;22.058;2023-05-10T16:15:03;17.60;39.60
28247;DHT22;66191;53.178;22.058;2023-05-10T16:17:39;17.60;39.90
28247;DHT22;66191;53.178;22.058;2023-05-10T16:20:10;17.60;40.10
28247;DHT22;66191;53.178;22.058;2023-05-10T16:22:41;17.50;40.00
28247;DHT22;66191;53.178;22.058;2023-05-10T16:25:15;17.50;40.10
28247;DHT22;66191;53.178;22.058;2023-05-10T16:27:49;17.50;39.90
28247;DHT22;66191;53.178;22.058;2023-05-10T16:30:21;17.50;39.80
28247;DHT22;66191;53.178;22.058;2023-05-10T16:32:56;17.50;40.10
28247;DHT22;66191;53.178;22.058;2023-05-10T16:35:28;17.50;39.80
28247;DHT22;66191;53.178;22.058;2023-05-10T16:38:00;17.40;40.10
28247;DHT22;66191;53.178;22.058;2023-05-10T16:40:32;17.40;40.50
28247;DHT22;66191;53.178;22.058;2023-05-10T16:43:24;17.40;40.40
28247;DHT22;66191;53.178;22.058;2023-05-10T16:45:55;17.40;40.50
28247;DHT22;66191;53.178;22.058;2023-05-10T16:48:29;17.40;40.60
28247;DHT22;66191;53.178;22.058;2023-05-10T16:51:01;17.40;40.60
28247;DHT22;66191;53.178;22.058;2023-05-10T16:53:32;17.30;40.50